Sparks, Texas
Current Conditions -  °F | °C
As of 7:58 AM on Thursday 29 Jan 2015 (Local Time) from KGRK Reporting Station
Clear Clear  
Wind Chill: 52°   Ceiling: Unl
Heat Index: 52°   Visibility: 9mi
Dew Point: 47°   Wind: 2mph
Humidity: 85%   Direction: 260°W
Pressure: 30.21"   Gusts: NA
Location:  30.8644°N, 97.3623°W
Report Text: KGRK 291358Z AUTO 26002KT 9SM CLR 11/09 A3021 RMK AO2 SLP228 T01090085
Loading
Personal Weather Stations






























Interactive Weather Map New forecast layout! Learn more

10-Day Weather Forecast

Advertisements
Track Severe Weather on mobile